createdAt,value
2017-07-28T00:08:11.000Z,49.9
2017-07-28T00:18:11.000Z,49.9
2017-07-28T00:28:11.000Z,49.7
2017-07-28T00:38:11.000Z,49.8
2017-07-28T00:48:11.000Z,50.4
2017-07-28T01:08:12.000Z,50.5
2017-07-28T01:18:11.000Z,50
2017-07-28T01:28:11.000Z,50.1
2017-07-28T01:38:11.000Z,50.4
2017-07-28T01:48:11.000Z,50.8
2017-07-28T01:58:11.000Z,50.9
2017-07-28T02:08:11.000Z,51.4
2017-07-28T02:18:11.000Z,51.7
2017-07-28T02:28:11.000Z,51.8
2017-07-28T02:38:11.000Z,52
2017-07-28T02:48:11.000Z,52.3
2017-07-28T02:58:11.000Z,52.1
2017-07-28T03:08:11.000Z,51.4
2017-07-28T03:28:11.000Z,51.4
2017-07-28T03:38:11.000Z,51.4
2017-07-28T03:48:11.000Z,51.5
2017-07-28T03:58:11.000Z,51.6
2017-07-28T04:08:11.000Z,51.6
2017-07-28T04:18:11.000Z,51.4
2017-07-28T04:28:11.000Z,51.3
2017-07-28T04:38:11.000Z,51.4
2017-07-28T04:48:11.000Z,51
2017-07-28T04:58:11.000Z,50.7
2017-07-28T05:08:11.000Z,51
2017-07-28T05:18:11.000Z,51.1
2017-07-28T05:28:11.000Z,51
2017-07-28T05:38:11.000Z,50.6
2017-07-28T05:48:11.000Z,50.9
2017-07-28T05:58:11.000Z,50.9
2017-07-28T06:08:11.000Z,50.7
2017-07-28T06:18:12.000Z,50.7
2017-07-28T06:28:12.000Z,50.6
2017-07-28T06:38:12.000Z,50.5
2017-07-28T06:48:12.000Z,50.8
2017-07-28T06:58:12.000Z,50.7
2017-07-28T07:08:12.000Z,50.9
2017-07-28T07:18:12.000Z,51.1
2017-07-28T07:28:12.000Z,51.5
2017-07-28T07:38:12.000Z,51.6
2017-07-28T07:48:12.000Z,50.9
2017-07-28T07:58:13.000Z,50.8
2017-07-28T08:08:12.000Z,50.7
2017-07-28T08:18:12.000Z,50.8
2017-07-28T08:28:12.000Z,50.7
2017-07-28T08:38:12.000Z,51.2
2017-07-28T08:48:12.000Z,50.9
2017-07-28T08:58:12.000Z,51
2017-07-28T09:08:12.000Z,50.8
2017-07-28T09:18:12.000Z,50.8
2017-07-28T09:28:12.000Z,50.6
2017-07-28T09:38:12.000Z,50.3
2017-07-28T09:48:12.000Z,50.3
2017-07-28T09:58:12.000Z,50.5
2017-07-28T10:08:12.000Z,51.5
2017-07-28T10:18:12.000Z,51.7
2017-07-28T10:28:12.000Z,52.1
2017-07-28T10:48:12.000Z,51.9
2017-07-28T11:08:12.000Z,51.7
2017-07-28T11:18:12.000Z,51.3
2017-07-28T11:28:12.000Z,51.3
2017-07-28T11:38:12.000Z,50.3
2017-07-28T11:48:12.000Z,50.9
2017-07-28T11:58:12.000Z,48
2017-07-28T12:08:12.000Z,48.7
2017-07-28T12:18:12.000Z,49.9
2017-07-28T12:28:12.000Z,50.2
2017-07-28T12:38:12.000Z,50.6
2017-07-28T12:48:12.000Z,50.7
2017-07-28T12:58:12.000Z,49.2
2017-07-28T13:08:13.000Z,48.2
2017-07-28T13:18:13.000Z,46.6
2017-07-28T13:28:13.000Z,45.6
2017-07-28T13:38:13.000Z,45.8
2017-07-28T13:48:13.000Z,44.5
2017-07-28T13:58:14.000Z,45.6
2017-07-28T14:08:13.000Z,47.3
2017-07-28T14:18:13.000Z,48.2
2017-07-28T14:28:13.000Z,49.3
2017-07-28T14:38:13.000Z,49.7
2017-07-28T14:48:13.000Z,49.7
2017-07-28T14:58:13.000Z,50
2017-07-28T15:08:13.000Z,50.2
2017-07-28T15:18:13.000Z,50.3
2017-07-28T15:28:13.000Z,50.5
2017-07-28T15:38:13.000Z,50.8
2017-07-28T15:48:13.000Z,51.9
2017-07-28T15:58:13.000Z,53.2
2017-07-28T16:08:13.000Z,51.8
2017-07-28T16:18:13.000Z,52.8
2017-07-28T16:28:13.000Z,51.1
2017-07-28T16:38:13.000Z,53.4
2017-07-28T16:48:13.000Z,51.8
2017-07-28T16:58:13.000Z,53.3
2017-07-28T17:08:13.000Z,49.5
2017-07-28T17:18:13.000Z,54.2
2017-07-28T17:28:13.000Z,54.7
2017-07-28T17:38:13.000Z,54.1
2017-07-28T17:48:13.000Z,53.6
2017-07-28T17:58:13.000Z,51.7
2017-07-28T18:08:13.000Z,52.5
2017-07-28T18:18:13.000Z,52.7
2017-07-28T18:28:13.000Z,52.7
2017-07-28T18:38:13.000Z,53.3
2017-07-28T18:48:13.000Z,52.2
2017-07-28T18:58:13.000Z,52.6
2017-07-28T19:08:13.000Z,52.6
2017-07-28T19:18:13.000Z,52.7
2017-07-28T19:28:13.000Z,52.4
2017-07-28T19:38:13.000Z,52.1
2017-07-28T19:48:13.000Z,52.1
2017-07-28T19:58:14.000Z,52.1
2017-07-28T20:08:14.000Z,51.9
2017-07-28T20:18:14.000Z,51.5
2017-07-28T20:28:14.000Z,52.2
2017-07-28T20:38:14.000Z,50.8
2017-07-28T20:48:14.000Z,50.3
2017-07-28T20:58:14.000Z,50.1
2017-07-28T21:08:14.000Z,50.2
2017-07-28T21:18:14.000Z,50.3
2017-07-28T21:28:14.000Z,50.9
2017-07-28T21:48:14.000Z,52
2017-07-28T21:58:14.000Z,53.4
2017-07-28T22:08:14.000Z,53.7
2017-07-28T22:18:16.000Z,54
2017-07-28T22:28:14.000Z,54.6
2017-07-28T22:38:14.000Z,54.8
2017-07-28T22:48:14.000Z,54.8
2017-07-28T22:58:14.000Z,55.2
2017-07-28T23:08:14.000Z,55.3
2017-07-28T23:18:14.000Z,55.4
2017-07-28T23:28:14.000Z,55.3
2017-07-28T23:38:14.000Z,55.6
2017-07-28T23:48:14.000Z,55.5
2017-07-28T23:58:14.000Z,55.5
